Ana Sayfa
METAR-TAF:

METAR-TAF

Havaalanları :

Aklavik, Kuzeybatı Bölgeleri, Kanada

Enlem: 68-13N, Boylam: 135-00W, yükseklik: 7 m

Güncel hava durumu gözlemi

Rapor saat 20:00 UTC de 7 saat ve 38 dakika önce yapıldı.
Rüzgar güneydan 6 kt
Sıcaklık -34°C
Nem 74%
Basınç 1005 hPa
Görüş mesafesi: 24.1 km
Açık gökyüzü

METAR: CYKD 192000Z 18006KT 15SM SKC M34/M37 A2967 RMK S0.0 AFT 15UTC/LAST STFD OBS/NXT 201400Z SLP051

Saat: 20:38 (03:38 UTC)


TAF: eksik

4.000'den fazla havaalanı için hava durumu gözlemleri ve tahminleri (METAR ve TAF raporları).

Kullanılabilir istasyonlar harita üzerinde sarı ve kırmızı noktalarla gösterilir.

İstasyonun adını görmek için fareyi noktanın üzerinde gezdirin.

Sonrasında hava gözlem ve tahminlerini görmek için tıklayın.

Haritayı değiştirmek için: yaklaştırmak için siyah artı işaretli yeşil düğmeye ve uzaklaştırmak için de eksi işaretli düğmeye hızla tıklayın; bitişik haritalar için yeşil okları kullanın.


METAR-TAF: